AirNav   Pilot Hours Calculator
 
 575 users online  

AL33 Sturdy Oak Farm Airport
Perdido, Alabama, USA

GOING TO PERDIDO?


FAA INFORMATION EFFECTIVE 28 MARCH 2019

Location

FAA Identifier: AL33
Lat/Long: 31-02-09.7100N / 087-35-37.7100W
31-02.161833N / 087-35.628500W
31.0360306 / -87.5938083
(estimated)
Elevation: 230 ft. / 70 m (estimated)
Variation: 01E (1985)
From city: 3 miles NE of PERDIDO, AL
Time zone: UTC -5 (UTC -6 during Standard Time)
Zip code: 36502

Airport Operations

Airport use: Private use. Permission required prior to landing
Activation date: 08/1988
Control tower: no
ARTCC: JACKSONVILLE CENTER
FSS: ANNISTON FLIGHT SERVICE STATION
Attendance: UNATNDD
Wind indicator: yes
Segmented circle: no

Nearby radio navigation aids

VOR radial/distance  VOR name  Freq  Var
MVCr202/28.3MONROEVILLE VORTAC116.8004E
BFMr039/34.8BROOKLEY VORTAC112.8004E
NUNr338/(36.4)SAUFLEY VOR108.8001E

Airport Services

Runway Information

Runway 3/21

Dimensions: 2100 x 100 ft. / 640 x 30 m
Surface: turf
RUNWAY 3  RUNWAY 21
Traffic pattern: leftleft
Obstructions: 50 ft. trees, 1300 ft. from runway25 ft. trees, 500 ft. from runway

Airport Ownership and Management from official FAA records

Ownership: Privately-owned
Owner: EICHOLD
165 S. GEORGIA AVE
MOBILE, AL 36604
Phone 251-438-4984
Manager: B. EICHOLD
165 S. GEORGIA AVE
MOBILE, AL 36604
Phone 251-438-4984
251-438-4984

Airport Operational Statistics

Aircraft based on the field: 1
Single engine airplanes: 1
    

Additional Remarks

AL AIR NATIONAL GUARD USES AIRPORT FOR AUX TRAINING FIELD.

Instrument Procedures

There are no published instrument procedures at AL33.

Some nearby airports with instrument procedures:

0R1 - Atmore Municipal Airport (8 nm E)
1R8 - Bay Minette Municipal Airport (15 nm SW)
12J - Brewton Municipal Airport (27 nm E)
KMVC - Monroe County Aeroplex Airport (28 nm NE)
4R3 - Jackson Municipal Airport (30 nm NW)
 
Loc | Ops | Rwys | IFR | FBO | Links
Com | Nav | Svcs | Stats | Notes

Continental Motors
AirBoss

 
Area around AL33 (Sturdy Oak Farm Airport)
 
Road maps at: MapQuest Bing Google
 
Aerial photo
No photo
 
Sectional chart

 
Airport distance calculator
Flying to Sturdy Oak Farm Airport? Find the distance to fly.

From to AL33

Sunrise and sunset
Times for 23-Apr-2019
 Local
(UTC-5)
 Zulu
(UTC)
Morning civil twilight05:5010:50
Sunrise06:1511:15
Sunset19:2300:23
Evening civil twilight19:4800:48

Current date and time
Zulu (UTC)  23-Apr-2019 11:09:03
Local (UTC-5)  23-Apr-2019 06:09:03
 
METAR
KBFM 
35nm SW 
231053Z 35003KT 10SM CLR 13/12 A3015 RMK AO2 SLP209 T01280122
KNSE 
35nm SE 
231056Z 00000KT 10SM SCT250 08/08 A3013 RMK AO2 SLP191 T00780078 $
KNDZ 
35nm SE 
231056Z AUTO 00000KT 10SM CLR 08/08 A3013 RMK AO2 SLP191 T00780078 $
KGZH 
36nm NE 
231053Z AUTO 00000KT 10SM CLR 10/07 A3013 RMK AO2 SLP202 T01000072
KCQF 
37nm SW 
231055Z AUTO 00000KT 10SM CLR 10/10 A3014 RMK AO2
2R4 
39nm SE 
SuperAWOS
231035Z AUTO 00000KT 09/08 A3011
KPNS 
39nm SE 
231053Z 01006KT 10SM CLR 14/14 A3013 RMK AO2 SLP204 T01390139
KMOB 
40nm SW 
231056Z 00000KT 10SM SCT250 12/11 A3014 RMK AO2 SLP205 T01170106
KNPA 
44nm S 
231056Z 33005KT 10SM SCT250 12/12 A3013 RMK AO2 SLP203 T01170117 $
KJKA 
45nm S 
231055Z AUTO 00000KT 10SM CLR 12/12 A3014 RMK AO2 T01200120
TAF
KBFM 
35nm SW 
230520Z 2306/2406 25003KT P6SM SCT250 FM231600 12006KT P6SM SCT250
KNSE 
35nm SE 
2307/2407 32010KT 9999 SCT300 QNH3007INS BECMG 2312/2314 06009KT 9999 SKC QNH3010INS BECMG 2320/2322 20010KT 9999 FEW20 QNH3007INS BECMG 2403/2405 VRB05KT 9999 OVC180 QNH3002INS AUTOMATED SENSOR METWATCH 2307 TIL 2311 T13/2312Z T27/2318Z COR 0735 FN00210
KPNS 
39nm SE 
230520Z 2306/2406 00000KT P6SM SKC FM231600 12006KT P6SM SCT250
KMOB 
40nm SW 
230520Z 2306/2406 00000KT P6SM SCT250 FM231600 14006KT P6SM SCT250
KNPA 
44nm S 
2307/2407 VRB04KT 9999 SCT180 QNH3007INS BECMG 2320/2322 17009KT 9999 FEW20 QNH3010INS BECMG 2403/2405 VRB05KT 9999 FEW180 BKN250 QNH3001INS AUTOMATED SENSOR METWATCH 2307 TIL 2311 T10/2309Z T24/2323Z COR0735 FN00210
NOTAMs
Click for the latest NOTAMs
NOTAMs are issued by the DoD/FAA and will open in a separate window not controlled by AirNav.

 

 
 

Would you like to see your business listed on this page?

 If your business provides an interesting product or service to pilots, flight crews, aircraft, or users of the Sturdy Oak Farm Airport, you should consider listing it here.  To start the listing process, click on the button below
 
Add a business
 

Other Pages about Sturdy Oak Farm Airport

Update a link
 
Copyright © AirNav, LLC. All rights reserved. Privacy Policy  Contact